createdAt,value
2017-09-02T00:01:06.686Z,33.00
2017-09-02T00:03:32.983Z,31.73
2017-09-02T00:06:00.024Z,30.43
2017-09-02T00:08:26.373Z,29.67
2017-09-02T00:10:52.684Z,29.40
2017-09-02T00:13:19.004Z,27.30
2017-09-02T00:15:45.492Z,30.90
2017-09-02T00:18:11.894Z,28.77
2017-09-02T00:20:38.215Z,30.30
2017-09-02T00:23:04.490Z,29.50
2017-09-02T00:25:30.822Z,30.23
2017-09-02T00:27:57.165Z,27.43
2017-09-02T00:30:23.866Z,26.95
2017-09-02T00:32:50.191Z,25.53
2017-09-02T00:35:18.235Z,28.17
2017-09-02T00:37:44.564Z,28.57
2017-09-02T00:40:11.479Z,30.70
2017-09-02T00:42:37.838Z,29.30
2017-09-02T00:45:04.187Z,31.85
2017-09-02T00:47:30.545Z,29.90
2017-09-02T00:49:56.869Z,26.70
2017-09-02T00:52:23.189Z,27.17
2017-09-02T00:54:49.489Z,29.13
2017-09-02T00:57:15.929Z,29.70
2017-09-02T00:59:42.294Z,30.77
2017-09-02T01:02:09.681Z,29.63
2017-09-02T01:04:35.973Z,31.53
2017-09-02T01:07:02.305Z,34.57
2017-09-02T01:09:28.646Z,33.07
2017-09-02T01:11:54.952Z,30.07
2017-09-02T01:14:22.049Z,31.20
2017-09-02T01:16:48.345Z,30.05
2017-09-02T01:19:14.645Z,30.87
2017-09-02T01:21:41.044Z,31.43
2017-09-02T01:24:07.336Z,31.80
2017-09-02T01:26:33.632Z,35.17
2017-09-02T01:29:00.764Z,34.33
2017-09-02T01:31:27.067Z,35.00
2017-09-02T01:33:53.340Z,30.20
2017-09-02T01:36:20.477Z,28.77
2017-09-02T01:38:46.755Z,29.17
2017-09-02T01:41:15.465Z,30.80
2017-09-02T01:43:41.762Z,26.87
2017-09-02T01:46:08.057Z,27.08
2017-09-02T01:48:34.336Z,25.88
2017-09-02T01:51:00.688Z,23.57
2017-09-02T01:53:26.960Z,23.17
2017-09-02T01:55:53.254Z,23.73
2017-09-02T01:58:19.588Z,22.42
2017-09-02T02:00:46.098Z,23.75
2017-09-02T02:03:12.449Z,22.60
2017-09-02T02:05:38.745Z,22.67
2017-09-02T02:08:05.025Z,22.42
2017-09-02T02:10:31.377Z,22.37
2017-09-02T02:12:59.440Z,23.77
2017-09-02T02:15:25.749Z,23.05
2017-09-02T02:17:52.061Z,23.25
2017-09-02T02:20:18.338Z,23.85
2017-09-02T02:22:44.633Z,22.90
2017-09-02T02:25:10.938Z,21.10
2017-09-02T02:27:38.078Z,21.98
2017-09-02T02:30:07.280Z,20.40
2017-09-02T02:32:33.731Z,17.73
2017-09-02T02:35:01.169Z,16.92
2017-09-02T02:37:27.470Z,18.80
2017-09-02T02:39:53.811Z,16.87
2017-09-02T02:42:20.165Z,18.70
2017-09-02T02:44:46.482Z,18.20
2017-09-02T02:47:12.768Z,18.95
2017-09-02T02:49:39.073Z,17.65
2017-09-02T02:52:05.353Z,18.33
2017-09-02T02:54:32.640Z,17.52
2017-09-02T02:56:58.937Z,19.60
2017-09-02T02:59:25.322Z,18.00
2017-09-02T03:01:51.623Z,18.75
2017-09-02T03:04:17.940Z,18.48
2017-09-02T03:06:44.264Z,17.67
2017-09-02T03:09:11.285Z,18.60
2017-09-02T03:11:37.596Z,18.98
2017-09-02T03:14:03.889Z,20.02
2017-09-02T03:16:30.185Z,19.98
2017-09-02T03:18:56.484Z,17.87
2017-09-02T03:21:23.405Z,18.85
2017-09-02T03:23:49.700Z,18.55
2017-09-02T03:26:16.022Z,19.92
2017-09-02T03:28:42.345Z,18.15
2017-09-02T03:31:08.643Z,19.12
2017-09-02T03:33:35.005Z,23.75
2017-09-02T03:36:02.057Z,21.35
2017-09-02T03:38:28.404Z,20.12
2017-09-02T03:40:54.682Z,18.17
2017-09-02T03:43:20.964Z,18.40
2017-09-02T03:45:47.223Z,18.25
2017-09-02T03:48:13.501Z,17.77
2017-09-02T03:50:40.736Z,19.75
2017-09-02T03:53:07.025Z,20.23
2017-09-02T03:55:33.317Z,19.03
2017-09-02T03:57:59.666Z,20.57
2017-09-02T04:00:26.005Z,20.13
2017-09-02T04:02:52.287Z,19.23
2017-09-02T04:05:18.557Z,20.67
2017-09-02T04:07:44.854Z,18.35
2017-09-02T04:10:11.146Z,19.35
2017-09-02T04:12:37.424Z,20.52
2017-09-02T04:15:03.722Z,19.83
2017-09-02T04:17:29.998Z,21.20
2017-09-02T04:19:56.320Z,18.90
2017-09-02T04:22:22.617Z,19.12
2017-09-02T04:24:48.941Z,19.62
2017-09-02T04:27:16.144Z,20.05
2017-09-02T04:29:42.449Z,20.52
2017-09-02T04:32:08.712Z,18.65
2017-09-02T04:34:34.997Z,18.00
2017-09-02T04:37:01.293Z,18.55
2017-09-02T04:39:27.620Z,18.90
2017-09-02T04:41:53.905Z,18.73
2017-09-02T04:44:20.208Z,19.43
2017-09-02T04:46:46.515Z,20.70
2017-09-02T04:49:12.999Z,20.55
2017-09-02T04:51:39.294Z,19.07
2017-09-02T04:54:05.612Z,19.23
2017-09-02T04:56:31.926Z,19.92
2017-09-02T04:58:58.329Z,22.98
2017-09-02T05:01:24.721Z,22.00
2017-09-02T05:03:51.009Z,22.97
2017-09-02T05:06:17.301Z,25.70
2017-09-02T05:08:44.017Z,25.75
2017-09-02T05:11:10.389Z,26.37
2017-09-02T05:13:36.709Z,27.43
2017-09-02T05:16:02.996Z,26.17
2017-09-02T05:18:29.442Z,23.77
2017-09-02T05:20:55.830Z,27.97
2017-09-02T05:23:22.116Z,29.30
2017-09-02T05:25:48.389Z,28.60
2017-09-02T05:28:14.677Z,29.93
2017-09-02T05:30:40.949Z,30.20
2017-09-02T05:33:07.329Z,30.73
2017-09-02T05:35:34.396Z,29.80
2017-09-02T05:38:00.682Z,33.55
2017-09-02T05:40:26.962Z,31.02
2017-09-02T05:42:53.229Z,30.77
2017-09-02T05:45:19.945Z,31.47
2017-09-02T05:47:46.276Z,29.77
2017-09-02T05:50:12.573Z,30.90
2017-09-02T05:52:38.921Z,30.90
2017-09-02T05:55:05.233Z,33.10
2017-09-02T05:57:32.788Z,32.95
2017-09-02T05:59:59.115Z,31.40
2017-09-02T06:02:25.477Z,29.97
2017-09-02T06:04:51.916Z,27.20
2017-09-02T06:07:18.977Z,27.40
2017-09-02T06:09:45.310Z,28.35
2017-09-02T06:12:11.675Z,25.50
2017-09-02T06:14:37.982Z,26.40
2017-09-02T06:17:04.280Z,27.97
2017-09-02T06:19:31.340Z,25.37
2017-09-02T06:21:57.657Z,29.12
2017-09-02T06:24:26.167Z,28.85
2017-09-02T06:26:52.661Z,29.65
2017-09-02T06:29:19.809Z,27.07
2017-09-02T06:31:46.168Z,29.37
2017-09-02T06:34:12.483Z,32.45
2017-09-02T06:36:38.784Z,28.37
2017-09-02T06:39:05.113Z,31.10
2017-09-02T06:41:33.296Z,31.70
2017-09-02T06:43:59.583Z,33.50
2017-09-02T06:46:25.876Z,33.33
2017-09-02T06:48:52.177Z,32.67
2017-09-02T06:51:18.479Z,35.23
2017-09-02T06:53:44.769Z,36.00
2017-09-02T06:56:11.078Z,34.25
2017-09-02T06:58:37.544Z,38.30
2017-09-02T07:01:03.841Z,33.63
2017-09-02T07:03:30.154Z,38.00
2017-09-02T07:05:56.443Z,35.57
2017-09-02T07:08:22.749Z,35.07
2017-09-02T07:10:49.038Z,35.30
2017-09-02T07:13:15.365Z,33.00
2017-09-02T07:15:41.671Z,34.33
2017-09-02T07:18:07.947Z,30.40
2017-09-02T07:20:34.215Z,32.23
2017-09-02T07:23:00.748Z,30.20
2017-09-02T07:25:27.148Z,33.50
2017-09-02T07:27:53.473Z,30.77
2017-09-02T07:30:19.765Z,31.40
2017-09-02T07:32:46.083Z,31.43
2017-09-02T07:35:12.387Z,33.53
2017-09-02T07:37:38.663Z,32.60
2017-09-02T07:40:05.076Z,32.43
2017-09-02T07:42:31.481Z,32.50
2017-09-02T07:44:57.752Z,32.97
2017-09-02T07:47:24.121Z,34.87
2017-09-02T07:49:50.447Z,33.00
2017-09-02T07:52:16.836Z,32.37
2017-09-02T07:54:43.126Z,35.47
2017-09-02T07:57:09.430Z,33.40
2017-09-02T07:59:35.979Z,36.37
2017-09-02T08:02:05.447Z,38.17
2017-09-02T08:04:31.856Z,39.27
2017-09-02T08:06:58.209Z,43.10
2017-09-02T08:09:24.813Z,40.90
2017-09-02T08:11:51.381Z,40.63
2017-09-02T08:14:17.786Z,37.83
2017-09-02T08:16:44.143Z,39.87
2017-09-02T08:19:14.163Z,39.13
2017-09-02T08:21:40.452Z,41.30
2017-09-02T08:24:06.749Z,40.70
2017-09-02T08:26:33.033Z,40.17
2017-09-02T08:29:00.068Z,40.83
2017-09-02T08:31:26.361Z,39.47
2017-09-02T08:33:52.691Z,37.90
2017-09-02T08:36:19.078Z,38.43
2017-09-02T08:38:45.377Z,39.80
2017-09-02T08:41:11.697Z,40.67
2017-09-02T08:43:38.003Z,41.93
2017-09-02T08:46:06.136Z,44.27
2017-09-02T08:48:32.516Z,41.00
2017-09-02T08:51:19.447Z,40.80
2017-09-02T08:53:48.558Z,43.73
2017-09-02T08:56:14.882Z,44.20
2017-09-02T08:58:43.105Z,43.07
2017-09-02T09:01:09.398Z,44.80
2017-09-02T09:03:35.733Z,46.13
2017-09-02T09:06:02.088Z,47.50
2017-09-02T09:08:28.414Z,50.43
2017-09-02T09:10:54.740Z,48.23
2017-09-02T09:13:21.042Z,46.83
2017-09-02T09:15:48.706Z,45.60
2017-09-02T09:18:14.993Z,51.13
2017-09-02T09:20:41.326Z,48.70
2017-09-02T09:23:07.627Z,50.83
2017-09-02T09:25:33.937Z,47.50
2017-09-02T09:28:00.243Z,46.40
2017-09-02T09:30:26.519Z,44.17
2017-09-02T09:32:55.667Z,42.43
2017-09-02T09:35:23.669Z,41.83
2017-09-02T09:37:50.933Z,41.97
2017-09-02T09:40:17.221Z,41.43
2017-09-02T09:42:43.489Z,41.77
2017-09-02T09:45:09.813Z,43.17
2017-09-02T09:47:36.104Z,41.47
2017-09-02T09:50:05.295Z,40.53
2017-09-02T09:52:31.589Z,39.00
2017-09-02T09:54:57.853Z,27.17
2017-09-02T09:57:24.247Z,25.73
2017-09-02T09:59:50.532Z,33.10
2017-09-02T10:02:16.800Z,35.40
2017-09-02T10:04:43.074Z,34.60
2017-09-02T10:07:09.348Z,33.60
2017-09-02T10:09:36.815Z,35.27
2017-09-02T10:12:03.139Z,37.37
2017-09-02T10:14:29.503Z,34.50
2017-09-02T10:16:55.826Z,22.17
2017-09-02T10:19:22.113Z,16.67
2017-09-02T10:21:48.396Z,15.67
2017-09-02T10:24:14.683Z,16.40
2017-09-02T10:26:43.520Z,14.80
2017-09-02T10:29:11.878Z,17.00
2017-09-02T10:31:38.185Z,15.80
2017-09-02T10:34:04.548Z,15.33
2017-09-02T10:36:30.850Z,14.30
2017-09-02T10:38:57.202Z,12.33
2017-09-02T10:41:23.569Z,13.37
2017-09-02T10:43:50.861Z,13.00
2017-09-02T10:46:18.607Z,11.60
2017-09-02T10:48:44.922Z,10.90
2017-09-02T10:51:11.203Z,9.23
2017-09-02T10:53:38.296Z,11.50
2017-09-02T10:56:04.562Z,9.77
2017-09-02T10:58:30.855Z,10.10
2017-09-02T11:00:57.258Z,10.73
2017-09-02T11:03:23.642Z,10.30
2017-09-02T11:05:52.100Z,12.77
2017-09-02T11:08:18.482Z,12.90
2017-09-02T11:10:45.116Z,12.50
2017-09-02T11:13:11.454Z,13.83
2017-09-02T11:15:37.760Z,15.17
2017-09-02T11:18:04.048Z,15.20
2017-09-02T11:20:31.396Z,16.20
2017-09-02T11:22:57.737Z,13.03
2017-09-02T11:25:25.042Z,13.87
2017-09-02T11:27:51.329Z,14.90
2017-09-02T11:30:17.671Z,11.87
2017-09-02T11:32:43.985Z,12.00
2017-09-02T11:35:10.447Z,10.57
2017-09-02T11:37:36.858Z,12.60
2017-09-02T11:40:03.148Z,9.77
2017-09-02T11:42:29.457Z,10.97
2017-09-02T11:44:55.911Z,10.87
2017-09-02T11:47:22.324Z,8.00
2017-09-02T11:49:48.760Z,9.50
2017-09-02T11:52:15.093Z,7.60
2017-09-02T11:54:43.886Z,8.23
2017-09-02T11:57:10.250Z,7.17
2017-09-02T11:59:36.631Z,6.20
2017-09-02T12:02:02.946Z,7.17
2017-09-02T12:04:29.235Z,6.93
2017-09-02T12:06:55.528Z,7.40
2017-09-02T12:09:21.996Z,7.57
2017-09-02T12:11:48.341Z,7.87
2017-09-02T12:14:14.705Z,7.90
2017-09-02T12:16:41.064Z,7.30
2017-09-02T12:19:07.510Z,7.40
2017-09-02T12:21:34.980Z,7.17
2017-09-02T12:24:01.366Z,8.07
2017-09-02T12:26:27.870Z,7.90
2017-09-02T12:28:54.197Z,7.20
2017-09-02T12:31:21.433Z,7.73
2017-09-02T12:33:47.722Z,7.53
2017-09-02T12:36:13.992Z,8.10
2017-09-02T12:38:40.277Z,7.20
2017-09-02T12:41:06.541Z,6.53
2017-09-02T12:43:32.816Z,5.90
2017-09-02T12:45:59.131Z,7.37
2017-09-02T12:48:26.641Z,7.57
2017-09-02T12:50:54.631Z,8.20
2017-09-02T12:53:21.029Z,5.70
2017-09-02T12:55:47.496Z,6.33
2017-09-02T12:58:13.798Z,7.60
2017-09-02T13:00:40.088Z,5.30
2017-09-02T13:03:06.380Z,5.90
2017-09-02T13:05:32.798Z,6.00
2017-09-02T13:07:59.107Z,5.43
2017-09-02T13:10:25.383Z,5.43
2017-09-02T13:12:51.654Z,5.20
2017-09-02T13:15:18.069Z,4.90
2017-09-02T13:17:44.508Z,4.67
2017-09-02T13:20:10.921Z,4.43
2017-09-02T13:22:56.453Z,4.70
2017-09-02T13:25:29.278Z,5.17
2017-09-02T13:28:01.622Z,4.10
2017-09-02T13:30:33.959Z,3.60
2017-09-02T13:33:06.378Z,3.90
2017-09-02T13:35:40.273Z,3.87
2017-09-02T13:38:12.633Z,4.20
2017-09-02T13:40:38.909Z,4.60
2017-09-02T13:43:11.438Z,3.70
2017-09-02T13:45:44.099Z,3.60
2017-09-02T13:48:16.633Z,3.50
2017-09-02T13:50:49.089Z,3.87
2017-09-02T13:53:21.608Z,3.17
2017-09-02T13:55:55.092Z,3.80
2017-09-02T13:58:27.512Z,3.40
2017-09-02T14:00:53.891Z,3.53
2017-09-02T14:03:20.323Z,3.60
2017-09-02T14:05:53.050Z,3.03
2017-09-02T14:08:19.434Z,3.53
2017-09-02T14:10:45.803Z,3.17
2017-09-02T14:13:12.185Z,3.70
2017-09-02T14:15:38.553Z,3.40
2017-09-02T14:18:05.003Z,3.43
2017-09-02T14:20:31.434Z,2.60
2017-09-02T14:22:57.786Z,2.97
2017-09-02T14:25:24.270Z,3.80
2017-09-02T14:27:50.729Z,3.60
2017-09-02T14:30:17.083Z,3.30
2017-09-02T14:32:43.425Z,3.43
2017-09-02T14:35:09.791Z,2.40
2017-09-02T14:37:36.193Z,2.77
2017-09-02T14:40:02.589Z,2.83
2017-09-02T14:42:29.380Z,3.20
2017-09-02T14:44:55.825Z,3.37
2017-09-02T14:47:22.180Z,3.10
2017-09-02T14:49:48.548Z,2.50
2017-09-02T14:52:14.887Z,3.60
2017-09-02T14:54:41.238Z,2.80
2017-09-02T14:57:07.814Z,2.80
2017-09-02T14:59:34.253Z,2.70
2017-09-02T15:02:00.642Z,2.67
2017-09-02T15:04:27.019Z,2.20
2017-09-02T15:06:53.407Z,3.00
2017-09-02T15:09:19.778Z,2.97
2017-09-02T15:11:46.179Z,2.73
2017-09-02T15:14:12.637Z,2.83
2017-09-02T15:16:38.984Z,3.10
2017-09-02T15:19:07.467Z,2.73
2017-09-02T15:21:34.391Z,3.37
2017-09-02T15:24:00.854Z,3.30
2017-09-02T15:26:27.286Z,3.07
2017-09-02T15:28:53.671Z,3.80
2017-09-02T15:31:20.048Z,3.33
2017-09-02T15:33:46.493Z,3.17
2017-09-02T15:36:12.910Z,3.60
2017-09-02T15:38:39.314Z,3.57
2017-09-02T15:41:05.938Z,3.70
2017-09-02T15:43:32.297Z,3.93
2017-09-02T15:45:58.653Z,4.10
2017-09-02T15:48:25.096Z,3.63
2017-09-02T15:50:51.431Z,3.90
2017-09-02T15:53:17.776Z,3.80
2017-09-02T15:55:44.142Z,4.13
2017-09-02T15:58:10.609Z,4.17
2017-09-02T16:00:36.953Z,4.50
2017-09-02T16:03:09.202Z,4.20
2017-09-02T16:05:35.561Z,4.20
2017-09-02T16:08:05.321Z,3.73
2017-09-02T16:10:32.125Z,4.07
2017-09-02T16:13:01.580Z,4.50
2017-09-02T16:15:28.053Z,5.00
2017-09-02T16:17:55.138Z,4.30
2017-09-02T16:20:21.570Z,4.50
2017-09-02T16:22:47.958Z,4.73
2017-09-02T16:25:15.428Z,4.10
2017-09-02T16:27:45.644Z,4.37
2017-09-02T16:30:12.014Z,4.17
2017-09-02T16:32:38.388Z,4.60
2017-09-02T16:35:04.756Z,3.20
2017-09-02T16:37:31.266Z,2.80
2017-09-02T16:39:57.657Z,2.90
2017-09-02T16:42:24.039Z,2.80
2017-09-02T16:44:50.418Z,3.00
2017-09-02T16:47:18.086Z,2.57
2017-09-02T16:49:44.475Z,2.90
2017-09-02T16:52:11.009Z,2.33
2017-09-02T16:54:37.518Z,2.20
2017-09-02T16:57:03.918Z,1.80
2017-09-02T16:59:31.496Z,2.80
2017-09-02T17:01:57.917Z,1.50
2017-09-02T17:04:24.312Z,1.60
2017-09-02T17:06:50.873Z,1.80
2017-09-02T17:09:18.365Z,1.80
2017-09-02T17:11:44.756Z,2.17
2017-09-02T17:14:11.216Z,2.03
2017-09-02T17:16:37.678Z,2.37
2017-09-02T17:19:04.068Z,2.73
2017-09-02T17:21:32.276Z,2.90
2017-09-02T17:23:58.713Z,6.00
2017-09-02T17:26:25.860Z,5.30
2017-09-02T17:28:52.241Z,6.53
2017-09-02T17:31:18.709Z,6.20
2017-09-02T17:33:45.066Z,6.10
2017-09-02T17:36:11.450Z,5.00
2017-09-02T17:38:37.862Z,7.37
2017-09-02T17:41:04.216Z,8.07
2017-09-02T17:43:30.573Z,6.10
2017-09-02T17:45:56.918Z,6.17
2017-09-02T17:48:23.297Z,6.23
2017-09-02T17:50:51.440Z,6.23
2017-09-02T17:53:17.846Z,6.77
2017-09-02T17:55:44.186Z,6.63
2017-09-02T17:58:11.076Z,10.53
2017-09-02T18:00:37.935Z,14.77
2017-09-02T18:03:04.328Z,11.10
2017-09-02T18:05:30.680Z,7.77
2017-09-02T18:07:57.052Z,5.80
2017-09-02T18:10:23.518Z,5.70
2017-09-02T18:12:49.901Z,6.00
2017-09-02T18:15:16.344Z,5.80
2017-09-02T18:17:42.710Z,6.10
2017-09-02T18:20:09.078Z,5.77
2017-09-02T18:22:35.578Z,5.80
2017-09-02T18:25:02.045Z,5.67
2017-09-02T18:27:28.395Z,6.30
2017-09-02T18:29:54.751Z,5.83
2017-09-02T18:32:21.110Z,6.40
2017-09-02T18:34:47.504Z,7.07
2017-09-02T18:37:13.862Z,6.80
2017-09-02T18:39:40.258Z,7.30
2017-09-02T18:42:06.601Z,6.90
2017-09-02T18:44:32.969Z,7.50
2017-09-02T18:46:59.383Z,7.40
2017-09-02T18:49:25.854Z,7.83
2017-09-02T18:51:52.239Z,8.63
2017-09-02T18:54:18.622Z,9.10
2017-09-02T18:56:44.968Z,8.33
2017-09-02T18:59:14.690Z,8.10
2017-09-02T19:01:41.029Z,8.93
2017-09-02T19:04:07.442Z,8.83
2017-09-02T19:06:33.839Z,8.33
2017-09-02T19:09:00.216Z,8.27
2017-09-02T19:11:26.581Z,8.73
2017-09-02T19:13:53.084Z,9.20
2017-09-02T19:16:21.917Z,8.70
2017-09-02T19:18:48.298Z,8.87
2017-09-02T19:21:14.692Z,8.90
2017-09-02T19:23:45.195Z,8.90
2017-09-02T19:26:11.549Z,8.17
2017-09-02T19:28:37.887Z,7.17
2017-09-02T19:31:04.257Z,8.00
2017-09-02T19:33:30.702Z,7.70
2017-09-02T19:35:57.101Z,7.90
2017-09-02T19:38:23.462Z,7.57
2017-09-02T19:40:49.826Z,6.70
2017-09-02T19:43:16.219Z,7.00
2017-09-02T19:45:42.563Z,8.17
2017-09-02T19:48:08.918Z,6.77
2017-09-02T19:50:35.342Z,7.20
2017-09-02T19:53:01.769Z,6.77
2017-09-02T19:55:28.135Z,7.37
2017-09-02T19:57:54.505Z,7.60
2017-09-02T20:00:20.862Z,8.00
2017-09-02T20:02:47.234Z,8.63
2017-09-02T20:05:13.694Z,8.00
2017-09-02T20:07:40.081Z,8.00
2017-09-02T20:10:06.490Z,9.10
2017-09-02T20:12:35.064Z,8.10
2017-09-02T20:15:01.553Z,9.50
2017-09-02T20:17:27.933Z,7.97
2017-09-02T20:19:54.313Z,8.97
2017-09-02T20:22:20.833Z,8.50
2017-09-02T20:24:47.275Z,7.93
2017-09-02T20:27:14.443Z,8.60
2017-09-02T20:29:42.434Z,8.70
2017-09-02T20:32:08.853Z,7.90
2017-09-02T20:34:35.214Z,8.70
2017-09-02T20:37:01.618Z,8.33
2017-09-02T20:39:27.996Z,9.10
2017-09-02T20:41:54.622Z,8.27
2017-09-02T20:44:21.002Z,8.33
2017-09-02T20:46:47.394Z,7.87
2017-09-02T20:49:13.789Z,8.70
2017-09-02T20:51:40.259Z,8.00
2017-09-02T20:54:06.691Z,7.70
2017-09-02T20:56:33.129Z,7.87
2017-09-02T20:58:59.514Z,7.40
2017-09-02T21:01:25.870Z,8.37
2017-09-02T21:03:52.253Z,8.27
2017-09-02T21:06:19.595Z,8.75
2017-09-02T21:08:46.000Z,8.93
2017-09-02T21:11:12.336Z,7.60
2017-09-02T21:13:38.801Z,7.80
2017-09-02T21:16:05.570Z,9.05
2017-09-02T21:18:31.930Z,8.97
2017-09-02T21:20:58.289Z,8.05
2017-09-02T21:23:24.690Z,9.47
2017-09-02T21:25:51.132Z,8.00
2017-09-02T21:28:17.503Z,9.55
2017-09-02T21:30:44.002Z,9.10
2017-09-02T21:33:10.656Z,9.13
2017-09-02T21:35:37.092Z,8.60
2017-09-02T21:38:03.470Z,9.00
2017-09-02T21:40:29.899Z,8.37
2017-09-02T21:42:56.249Z,8.40
2017-09-02T21:45:22.617Z,8.57
2017-09-02T21:47:49.027Z,8.43
2017-09-02T21:50:17.447Z,9.60
2017-09-02T21:52:43.840Z,9.95
2017-09-02T21:55:10.190Z,9.63
2017-09-02T21:57:36.561Z,9.35
2017-09-02T22:00:03.021Z,9.90
2017-09-02T22:02:29.476Z,8.68
2017-09-02T22:04:55.914Z,9.45
2017-09-02T22:07:22.305Z,9.30
2017-09-02T22:09:48.797Z,10.23
2017-09-02T22:12:15.181Z,10.35
2017-09-02T22:14:41.566Z,8.85
2017-09-02T22:17:07.927Z,9.00
2017-09-02T22:19:34.281Z,9.10
2017-09-02T22:22:00.637Z,9.15
2017-09-02T22:24:27.014Z,9.50
2017-09-02T22:26:53.380Z,8.88
2017-09-02T22:29:19.778Z,10.32
2017-09-02T22:31:46.145Z,8.57
2017-09-02T22:34:12.517Z,8.77
2017-09-02T22:36:38.953Z,9.30
2017-09-02T22:39:05.435Z,9.02
2017-09-02T22:41:31.897Z,8.90
2017-09-02T22:43:58.366Z,9.85
2017-09-02T22:46:24.755Z,9.17
2017-09-02T22:48:51.201Z,8.15
2017-09-02T22:51:17.606Z,8.13
2017-09-02T22:53:44.026Z,8.48
2017-09-02T22:56:10.447Z,8.20
2017-09-02T22:58:36.945Z,9.30
2017-09-02T23:01:03.369Z,11.07
2017-09-02T23:03:29.827Z,11.07
2017-09-02T23:05:56.218Z,9.95
2017-09-02T23:08:22.577Z,9.32
2017-09-02T23:10:48.978Z,9.63
2017-09-02T23:13:15.444Z,10.75
2017-09-02T23:15:41.818Z,10.30
2017-09-02T23:18:08.353Z,9.27
2017-09-02T23:20:34.781Z,11.05
2017-09-02T23:23:01.197Z,9.55
2017-09-02T23:25:30.057Z,9.73
2017-09-02T23:27:56.445Z,8.75
2017-09-02T23:30:24.688Z,9.38
2017-09-02T23:32:51.073Z,9.68
2017-09-02T23:35:17.465Z,9.38
2017-09-02T23:37:45.091Z,10.40
2017-09-02T23:40:11.626Z,9.90
2017-09-02T23:42:38.010Z,9.27
2017-09-02T23:45:04.491Z,11.70
2017-09-02T23:47:30.924Z,12.05
2017-09-02T23:49:57.338Z,11.32
2017-09-02T23:52:23.713Z,9.70
2017-09-02T23:54:50.098Z,10.25
2017-09-02T23:57:16.490Z,10.15
2017-09-02T23:59:42.861Z,11.25
